sensor_id;sensor_type;location;lat;lon;timestamp;pressure;altitude;pressure_sealevel;temperature;humidity
9439;BME280;5176;42.622;25.386;2023-05-19T00:01:02;97115.25;;;15.80;88.55
9439;BME280;5176;42.622;25.386;2023-05-19T00:03:32;97083.78;;;15.68;88.96
9439;BME280;5176;42.622;25.386;2023-05-19T00:06:02;97090.72;;;15.69;87.63
9439;BME280;5176;42.622;25.386;2023-05-19T00:08:30;97086.13;;;15.71;86.61
9439;BME280;5176;42.622;25.386;2023-05-19T00:11:00;97088.66;;;15.72;87.02
9439;BME280;5176;42.622;25.386;2023-05-19T00:13:28;97090.34;;;15.73;86.08
9439;BME280;5176;42.622;25.386;2023-05-19T00:15:55;97087.84;;;15.72;85.47
9439;BME280;5176;42.622;25.386;2023-05-19T00:18:23;97089.09;;;15.77;83.84
9439;BME280;5176;42.622;25.386;2023-05-19T00:20:52;97104.69;;;15.80;84.27
9439;BME280;5176;42.622;25.386;2023-05-19T00:23:20;97097.44;;;15.83;83.18
9439;BME280;5176;42.622;25.386;2023-05-19T00:25:47;97105.81;;;15.88;82.25
9439;BME280;5176;42.622;25.386;2023-05-19T00:28:14;97104.59;;;15.92;83.08
9439;BME280;5176;42.622;25.386;2023-05-19T00:30:41;97109.47;;;15.96;84.00
9439;BME280;5176;42.622;25.386;2023-05-19T00:33:08;97098.88;;;15.96;83.97
9439;BME280;5176;42.622;25.386;2023-05-19T00:35:36;97106.13;;;15.94;84.08
9439;BME280;5176;42.622;25.386;2023-05-19T00:38:06;97109.47;;;15.96;85.40
9439;BME280;5176;42.622;25.386;2023-05-19T00:40:35;97104.47;;;15.93;86.06
9439;BME280;5176;42.622;25.386;2023-05-19T00:43:02;97109.16;;;15.90;88.20
9439;BME280;5176;42.622;25.386;2023-05-19T00:45:30;97111.66;;;15.91;87.96
9439;BME280;5176;42.622;25.386;2023-05-19T00:47:58;97120.16;;;15.85;87.65
9439;BME280;5176;42.622;25.386;2023-05-19T00:50:26;97110.38;;;15.76;87.54
9439;BME280;5176;42.622;25.386;2023-05-19T00:52:54;97108.97;;;15.72;87.72
9439;BME280;5176;42.622;25.386;2023-05-19T00:55:25;97127.66;;;15.59;87.96
9439;BME280;5176;42.622;25.386;2023-05-19T00:57:53;97118.16;;;15.57;88.21
9439;BME280;5176;42.622;25.386;2023-05-19T01:00:22;97115.66;;;15.55;88.39
9439;BME280;5176;42.622;25.386;2023-05-19T01:02:49;97106.31;;;15.51;88.80
9439;BME280;5176;42.622;25.386;2023-05-19T01:05:16;97111.03;;;15.47;88.49
9439;BME280;5176;42.622;25.386;2023-05-19T01:07:43;97115.34;;;15.48;89.11
9439;BME280;5176;42.622;25.386;2023-05-19T01:10:11;97104.09;;;15.46;89.22
9439;BME280;5176;42.622;25.386;2023-05-19T01:12:40;97099.78;;;15.45;89.76
9439;BME280;5176;42.622;25.386;2023-05-19T01:15:09;97087.22;;;15.38;89.04
9439;BME280;5176;42.622;25.386;2023-05-19T01:17:40;97103.66;;;15.41;88.61
9439;BME280;5176;42.622;25.386;2023-05-19T01:20:13;97105.69;;;15.38;89.06
9439;BME280;5176;42.622;25.386;2023-05-19T01:23:11;97106.41;;;15.40;88.75
9439;BME280;5176;42.622;25.386;2023-05-19T01:31:50;97110.22;;;15.47;88.31
9439;BME280;5176;42.622;25.386;2023-05-19T01:34:22;97113.84;;;15.56;88.25
9439;BME280;5176;42.622;25.386;2023-05-19T01:36:53;97103.97;;;15.58;87.51
9439;BME280;5176;42.622;25.386;2023-05-19T01:39:22;97117.47;;;15.54;87.45
9439;BME280;5176;42.622;25.386;2023-05-19T01:41:50;97109.69;;;15.53;87.63
9439;BME280;5176;42.622;25.386;2023-05-19T01:44:18;97103.44;;;15.54;87.35
9439;BME280;5176;42.622;25.386;2023-05-19T01:46:49;97103.13;;;15.47;87.79
9439;BME280;5176;42.622;25.386;2023-05-19T01:49:17;97105.63;;;15.49;87.02
9439;BME280;5176;42.622;25.386;2023-05-19T01:51:44;97100.72;;;15.44;87.61
9439;BME280;5176;42.622;25.386;2023-05-19T01:54:12;97096.88;;;15.48;86.74
9439;BME280;5176;42.622;25.386;2023-05-19T01:56:46;97093.38;;;15.48;87.23
9439;BME280;5176;42.622;25.386;2023-05-19T01:59:25;97098.94;;;15.45;86.87
9439;BME280;5176;42.622;25.386;2023-05-19T02:01:58;97097.97;;;15.46;86.67
9439;BME280;5176;42.622;25.386;2023-05-19T02:04:34;97100.63;;;15.46;87.15
9439;BME280;5176;42.622;25.386;2023-05-19T02:07:11;97093.66;;;15.45;85.49
9439;BME280;5176;42.622;25.386;2023-05-19T02:09:48;97108.25;;;15.49;86.03
9439;BME280;5176;42.622;25.386;2023-05-19T02:12:21;97105.91;;;15.46;86.35
9439;BME280;5176;42.622;25.386;2023-05-19T02:14:56;97115.03;;;15.42;86.06
9439;BME280;5176;42.622;25.386;2023-05-19T02:17:28;97118.50;;;15.42;85.82
9439;BME280;5176;42.622;25.386;2023-05-19T02:19:58;97115.31;;;15.39;84.66
9439;BME280;5176;42.622;25.386;2023-05-19T02:22:25;97115.50;;;15.47;85.91
9439;BME280;5176;42.622;25.386;2023-05-19T02:24:52;97118.50;;;15.42;85.52
9439;BME280;5176;42.622;25.386;2023-05-19T02:27:22;97126.31;;;15.44;85.70
9439;BME280;5176;42.622;25.386;2023-05-19T02:29:50;97109.63;;;15.43;86.04
9439;BME280;5176;42.622;25.386;2023-05-19T02:32:19;97123.94;;;15.41;86.08
9439;BME280;5176;42.622;25.386;2023-05-19T02:34:48;97124.63;;;15.43;85.49
9439;BME280;5176;42.622;25.386;2023-05-19T02:37:15;97111.69;;;15.40;84.42
9439;BME280;5176;42.622;25.386;2023-05-19T02:39:43;97127.28;;;15.43;85.12
9439;BME280;5176;42.622;25.386;2023-05-19T02:42:11;97126.56;;;15.41;84.29
9439;BME280;5176;42.622;25.386;2023-05-19T02:44:39;97131.84;;;15.41;83.63
9439;BME280;5176;42.622;25.386;2023-05-19T02:47:07;97139.00;;;15.50;80.87
9439;BME280;5176;42.622;25.386;2023-05-19T02:49:34;97137.91;;;15.52;80.90
9439;BME280;5176;42.622;25.386;2023-05-19T02:52:04;97144.59;;;15.57;82.02
9439;BME280;5176;42.622;25.386;2023-05-19T02:54:33;97135.00;;;15.56;80.41
9439;BME280;5176;42.622;25.386;2023-05-19T02:57:01;97158.16;;;15.63;79.56
9439;BME280;5176;42.622;25.386;2023-05-19T02:59:28;97149.13;;;15.66;78.66
9439;BME280;5176;42.622;25.386;2023-05-19T03:01:58;97152.19;;;15.71;79.29
9439;BME280;5176;42.622;25.386;2023-05-19T03:04:26;97152.63;;;15.66;80.61
9439;BME280;5176;42.622;25.386;2023-05-19T03:06:54;97151.19;;;15.62;80.11
9439;BME280;5176;42.622;25.386;2023-05-19T03:09:24;97177.63;;;15.62;80.93
9439;BME280;5176;42.622;25.386;2023-05-19T03:11:52;97174.19;;;15.71;75.20
9439;BME280;5176;42.622;25.386;2023-05-19T03:14:19;97187.44;;;15.81;76.58
9439;BME280;5176;42.622;25.386;2023-05-19T03:16:48;97186.88;;;15.77;78.20
9439;BME280;5176;42.622;25.386;2023-05-19T03:19:16;97200.09;;;15.77;79.24
9439;BME280;5176;42.622;25.386;2023-05-19T03:21:43;97209.13;;;15.75;80.06
9439;BME280;5176;42.622;25.386;2023-05-19T03:24:11;97199.06;;;15.69;81.01
9439;BME280;5176;42.622;25.386;2023-05-19T03:26:39;97196.09;;;15.62;81.43
9439;BME280;5176;42.622;25.386;2023-05-19T03:29:07;97199.97;;;15.58;81.92
9439;BME280;5176;42.622;25.386;2023-05-19T03:31:34;97194.78;;;15.57;83.40
9439;BME280;5176;42.622;25.386;2023-05-19T03:34:01;97213.09;;;15.48;84.81
9439;BME280;5176;42.622;25.386;2023-05-19T03:36:29;97214.06;;;15.47;85.15
9439;BME280;5176;42.622;25.386;2023-05-19T03:39:04;97218.25;;;15.50;85.24
9439;BME280;5176;42.622;25.386;2023-05-19T03:41:31;97229.91;;;15.47;85.82
9439;BME280;5176;42.622;25.386;2023-05-19T03:44:00;97208.66;;;15.49;84.51
9439;BME280;5176;42.622;25.386;2023-05-19T03:46:28;97212.53;;;15.45;85.76
9439;BME280;5176;42.622;25.386;2023-05-19T03:48:55;97201.81;;;15.25;85.99
9439;BME280;5176;42.622;25.386;2023-05-19T03:51:22;97222.38;;;15.43;86.73
9439;BME280;5176;42.622;25.386;2023-05-19T03:53:52;97220.69;;;15.42;86.47
9439;BME280;5176;42.622;25.386;2023-05-19T03:56:20;97221.41;;;15.44;87.75
9439;BME280;5176;42.622;25.386;2023-05-19T03:58:49;97225.75;;;15.45;85.83
9439;BME280;5176;42.622;25.386;2023-05-19T04:01:18;97226.16;;;15.50;85.10
9439;BME280;5176;42.622;25.386;2023-05-19T04:03:47;97223.97;;;15.55;86.01
9439;BME280;5176;42.622;25.386;2023-05-19T04:06:17;97222.44;;;15.52;87.16
9439;BME280;5176;42.622;25.386;2023-05-19T04:08:46;97232.03;;;15.53;85.85
9439;BME280;5176;42.622;25.386;2023-05-19T04:11:13;97237.06;;;15.57;85.07
9439;BME280;5176;42.622;25.386;2023-05-19T04:13:41;97233.34;;;15.59;85.36
9439;BME280;5176;42.622;25.386;2023-05-19T04:16:08;97229.25;;;15.66;84.16
9439;BME280;5176;42.622;25.386;2023-05-19T04:18:37;97231.22;;;15.74;83.79
9439;BME280;5176;42.622;25.386;2023-05-19T04:21:05;97232.06;;;15.74;82.77
9439;BME280;5176;42.622;25.386;2023-05-19T04:23:33;97201.72;;;15.69;82.88
9439;BME280;5176;42.622;25.386;2023-05-19T04:26:00;97230.44;;;15.83;83.90
9439;BME280;5176;42.622;25.386;2023-05-19T04:28:28;97228.25;;;15.88;83.23
9439;BME280;5176;42.622;25.386;2023-05-19T04:30:55;97232.69;;;15.88;83.34
9439;BME280;5176;42.622;25.386;2023-05-19T04:33:23;97234.97;;;15.92;82.98
9439;BME280;5176;42.622;25.386;2023-05-19T04:35:51;97235.13;;;16.00;81.85
9439;BME280;5176;42.622;25.386;2023-05-19T04:38:19;97238.94;;;16.07;82.65
9439;BME280;5176;42.622;25.386;2023-05-19T04:40:46;97243.69;;;16.14;81.64
9439;BME280;5176;42.622;25.386;2023-05-19T04:43:16;97248.28;;;16.12;78.65
9439;BME280;5176;42.622;25.386;2023-05-19T04:45:44;97245.75;;;16.10;80.96
9439;BME280;5176;42.622;25.386;2023-05-19T04:48:12;97238.53;;;16.12;81.62
9439;BME280;5176;42.622;25.386;2023-05-19T04:50:39;97229.25;;;15.97;81.64
9439;BME280;5176;42.622;25.386;2023-05-19T04:53:09;97230.19;;;15.86;81.72
9439;BME280;5176;42.622;25.386;2023-05-19T04:55:36;97253.88;;;15.97;82.15
9439;BME280;5176;42.622;25.386;2023-05-19T04:58:04;97260.28;;;15.95;82.34
9439;BME280;5176;42.622;25.386;2023-05-19T05:00:31;97249.56;;;15.96;81.96
9439;BME280;5176;42.622;25.386;2023-05-19T05:03:00;97266.47;;;16.05;82.39
9439;BME280;5176;42.622;25.386;2023-05-19T05:05:29;97272.59;;;16.05;80.82
9439;BME280;5176;42.622;25.386;2023-05-19T05:07:57;97278.38;;;16.20;81.16
9439;BME280;5176;42.622;25.386;2023-05-19T05:10:26;97263.38;;;16.30;81.27
9439;BME280;5176;42.622;25.386;2023-05-19T05:12:54;97278.19;;;16.43;80.79
9439;BME280;5176;42.622;25.386;2023-05-19T05:15:22;97280.75;;;16.54;79.73
9439;BME280;5176;42.622;25.386;2023-05-19T05:17:50;97279.25;;;16.61;79.95
9439;BME280;5176;42.622;25.386;2023-05-19T05:20:18;97295.16;;;16.71;76.95
9439;BME280;5176;42.622;25.386;2023-05-19T05:22:46;97285.19;;;16.84;79.31
9439;BME280;5176;42.622;25.386;2023-05-19T05:25:15;97282.56;;;16.94;77.32
9439;BME280;5176;42.622;25.386;2023-05-19T05:27:44;97284.69;;;17.00;78.44
9439;BME280;5176;42.622;25.386;2023-05-19T05:30:12;97297.09;;;17.09;76.67
9439;BME280;5176;42.622;25.386;2023-05-19T05:32:39;97282.16;;;17.08;74.71
9439;BME280;5176;42.622;25.386;2023-05-19T05:35:07;97295.84;;;17.23;76.61
9439;BME280;5176;42.622;25.386;2023-05-19T05:37:35;97288.19;;;17.29;76.51
9439;BME280;5176;42.622;25.386;2023-05-19T05:40:03;97293.06;;;17.34;76.34
9439;BME280;5176;42.622;25.386;2023-05-19T05:42:31;97297.09;;;17.38;75.70
9439;BME280;5176;42.622;25.386;2023-05-19T05:45:00;97303.13;;;17.40;76.58
9439;BME280;5176;42.622;25.386;2023-05-19T05:47:28;97313.72;;;17.50;76.23
9439;BME280;5176;42.622;25.386;2023-05-19T05:49:56;97309.38;;;17.58;77.30
9439;BME280;5176;42.622;25.386;2023-05-19T05:52:28;97319.16;;;17.67;75.11
9439;BME280;5176;42.622;25.386;2023-05-19T05:54:56;97323.09;;;17.73;74.93
9439;BME280;5176;42.622;25.386;2023-05-19T05:57:24;97313.34;;;17.74;76.13
9439;BME280;5176;42.622;25.386;2023-05-19T05:59:51;97327.69;;;17.90;74.75
9439;BME280;5176;42.622;25.386;2023-05-19T06:02:20;97329.78;;;17.96;72.74
9439;BME280;5176;42.622;25.386;2023-05-19T06:04:47;97351.94;;;18.05;71.81
9439;BME280;5176;42.622;25.386;2023-05-19T06:07:15;97341.88;;;18.18;72.06
9439;BME280;5176;42.622;25.386;2023-05-19T06:09:42;97307.94;;;18.22;73.27
9439;BME280;5176;42.622;25.386;2023-05-19T06:12:10;97345.00;;;18.51;70.21
9439;BME280;5176;42.622;25.386;2023-05-19T06:14:37;97344.72;;;18.54;73.12
9439;BME280;5176;42.622;25.386;2023-05-19T06:17:05;97349.47;;;18.60;71.74
9439;BME280;5176;42.622;25.386;2023-05-19T06:19:33;97345.81;;;18.61;68.94
9439;BME280;5176;42.622;25.386;2023-05-19T06:22:01;97355.06;;;18.67;69.71
9439;BME280;5176;42.622;25.386;2023-05-19T06:24:28;97357.81;;;18.75;70.20
9439;BME280;5176;42.622;25.386;2023-05-19T06:26:55;97316.44;;;18.35;69.64
9439;BME280;5176;42.622;25.386;2023-05-19T06:29:23;97363.13;;;18.65;71.30
9439;BME280;5176;42.622;25.386;2023-05-19T06:31:50;97359.63;;;18.74;69.98
9439;BME280;5176;42.622;25.386;2023-05-19T06:34:17;97363.09;;;18.85;70.30
9439;BME280;5176;42.622;25.386;2023-05-19T06:36:47;97361.00;;;18.78;67.88
9439;BME280;5176;42.622;25.386;2023-05-19T06:39:14;97363.06;;;18.94;68.43
9439;BME280;5176;42.622;25.386;2023-05-19T06:41:41;97371.06;;;19.12;68.47
9439;BME280;5176;42.622;25.386;2023-05-19T06:44:09;97371.41;;;19.27;69.06
9439;BME280;5176;42.622;25.386;2023-05-19T06:46:36;97375.22;;;19.42;67.71
9439;BME280;5176;42.622;25.386;2023-05-19T06:49:03;97381.72;;;19.57;66.34
9439;BME280;5176;42.622;25.386;2023-05-19T06:51:31;97378.63;;;19.62;67.45
9439;BME280;5176;42.622;25.386;2023-05-19T06:54:01;97378.41;;;19.73;66.38
9439;BME280;5176;42.622;25.386;2023-05-19T06:56:29;97388.59;;;19.96;64.86
9439;BME280;5176;42.622;25.386;2023-05-19T06:58:56;97379.16;;;20.01;64.54
9439;BME280;5176;42.622;25.386;2023-05-19T07:01:23;97376.88;;;20.06;66.37
9439;BME280;5176;42.622;25.386;2023-05-19T07:03:52;97382.25;;;20.14;62.26
9439;BME280;5176;42.622;25.386;2023-05-19T07:06:19;97388.88;;;20.28;63.38
9439;BME280;5176;42.622;25.386;2023-05-19T07:08:47;97385.59;;;20.34;63.12
9439;BME280;5176;42.622;25.386;2023-05-19T07:11:16;97386.34;;;20.45;64.73
9439;BME280;5176;42.622;25.386;2023-05-19T07:13:43;97381.75;;;20.55;63.30
9439;BME280;5176;42.622;25.386;2023-05-19T07:16:10;97384.63;;;20.44;62.60
9439;BME280;5176;42.622;25.386;2023-05-19T07:18:38;97398.34;;;20.49;64.30
9439;BME280;5176;42.622;25.386;2023-05-19T07:21:05;97390.59;;;20.55;62.51
9439;BME280;5176;42.622;25.386;2023-05-19T07:23:33;97395.31;;;20.70;61.82
9439;BME280;5176;42.622;25.386;2023-05-19T07:26:00;97380.19;;;20.70;61.70
9439;BME280;5176;42.622;25.386;2023-05-19T07:28:29;97394.88;;;20.74;63.14
9439;BME280;5176;42.622;25.386;2023-05-19T07:30:56;97387.00;;;20.73;62.22
9439;BME280;5176;42.622;25.386;2023-05-19T07:33:24;97352.84;;;20.42;62.68
9439;BME280;5176;42.622;25.386;2023-05-19T07:35:51;97393.34;;;20.72;62.86
9439;BME280;5176;42.622;25.386;2023-05-19T07:38:18;97388.63;;;20.91;62.87
9439;BME280;5176;42.622;25.386;2023-05-19T07:40:46;97392.69;;;21.04;62.68
9439;BME280;5176;42.622;25.386;2023-05-19T07:43:13;97377.53;;;21.12;59.98
9439;BME280;5176;42.622;25.386;2023-05-19T07:45:42;97382.44;;;21.25;59.19
9439;BME280;5176;42.622;25.386;2023-05-19T07:48:10;97380.88;;;21.40;60.86
9439;BME280;5176;42.622;25.386;2023-05-19T07:50:37;97372.00;;;21.40;61.15
9439;BME280;5176;42.622;25.386;2023-05-19T07:53:04;97368.50;;;21.31;61.38
9439;BME280;5176;42.622;25.386;2023-05-19T07:55:32;97369.50;;;21.38;58.15
9439;BME280;5176;42.622;25.386;2023-05-19T07:57:59;97358.19;;;21.44;59.49
9439;BME280;5176;42.622;25.386;2023-05-19T08:00:27;97375.22;;;21.60;57.41
9439;BME280;5176;42.622;25.386;2023-05-19T08:02:55;97371.91;;;21.66;57.67
9439;BME280;5176;42.622;25.386;2023-05-19T08:05:23;97379.94;;;21.82;57.39
9439;BME280;5176;42.622;25.386;2023-05-19T08:07:51;97383.75;;;21.80;58.42
9439;BME280;5176;42.622;25.386;2023-05-19T08:10:18;97377.94;;;21.76;60.22
9439;BME280;5176;42.622;25.386;2023-05-19T08:12:46;97387.63;;;21.85;58.72
9439;BME280;5176;42.622;25.386;2023-05-19T08:15:13;97384.09;;;21.76;58.11
9439;BME280;5176;42.622;25.386;2023-05-19T08:17:41;97398.16;;;22.03;54.75
9439;BME280;5176;42.622;25.386;2023-05-19T08:20:10;97382.00;;;22.21;58.94
9439;BME280;5176;42.622;25.386;2023-05-19T08:22:38;97378.34;;;22.22;57.20
9439;BME280;5176;42.622;25.386;2023-05-19T08:25:06;97391.84;;;22.28;51.38
9439;BME280;5176;42.622;25.386;2023-05-19T08:27:34;97401.69;;;22.36;51.34
9439;BME280;5176;42.622;25.386;2023-05-19T08:30:01;97401.66;;;22.52;53.15
9439;BME280;5176;42.622;25.386;2023-05-19T08:32:28;97403.66;;;22.75;53.53
9439;BME280;5176;42.622;25.386;2023-05-19T08:34:56;97401.78;;;22.83;55.67
9439;BME280;5176;42.622;25.386;2023-05-19T08:37:25;97392.91;;;22.99;53.93
9439;BME280;5176;42.622;25.386;2023-05-19T08:39:52;97393.56;;;23.09;54.18
9439;BME280;5176;42.622;25.386;2023-05-19T08:42:19;97392.31;;;23.20;51.51
9439;BME280;5176;42.622;25.386;2023-05-19T08:44:47;97407.47;;;22.97;50.90
9439;BME280;5176;42.622;25.386;2023-05-19T08:47:14;97406.63;;;22.96;52.75
9439;BME280;5176;42.622;25.386;2023-05-19T08:49:43;97405.25;;;23.00;56.07
9439;BME280;5176;42.622;25.386;2023-05-19T08:52:18;97411.19;;;23.27;52.53
9439;BME280;5176;42.622;25.386;2023-05-19T08:54:59;97410.25;;;23.51;51.88
9439;BME280;5176;42.622;25.386;2023-05-19T08:57:30;97386.13;;;23.28;51.38
9439;BME280;5176;42.622;25.386;2023-05-19T08:59:59;97415.09;;;23.55;50.97
9439;BME280;5176;42.622;25.386;2023-05-19T09:02:27;97403.66;;;23.70;52.22
9439;BME280;5176;42.622;25.386;2023-05-19T09:04:55;97415.34;;;24.00;51.25
9439;BME280;5176;42.622;25.386;2023-05-19T09:07:23;97422.97;;;24.11;48.34
9439;BME280;5176;42.622;25.386;2023-05-19T09:09:52;97414.63;;;24.06;51.96
9439;BME280;5176;42.622;25.386;2023-05-19T09:12:20;97426.84;;;24.31;50.69
9439;BME280;5176;42.622;25.386;2023-05-19T09:14:47;97420.91;;;24.21;48.88
9439;BME280;5176;42.622;25.386;2023-05-19T09:17:14;97421.53;;;24.46;50.98
9439;BME280;5176;42.622;25.386;2023-05-19T09:19:43;97421.19;;;24.49;47.78
9439;BME280;5176;42.622;25.386;2023-05-19T09:22:14;97420.47;;;24.55;47.39
9439;BME280;5176;42.622;25.386;2023-05-19T09:24:43;97413.72;;;24.59;48.08
9439;BME280;5176;42.622;25.386;2023-05-19T09:27:20;97415.88;;;24.64;49.80
9439;BME280;5176;42.622;25.386;2023-05-19T09:29:48;97414.94;;;24.57;46.71
9439;BME280;5176;42.622;25.386;2023-05-19T09:32:23;97423.00;;;24.71;47.23
9439;BME280;5176;42.622;25.386;2023-05-19T09:34:52;97426.94;;;24.61;47.50
9439;BME280;5176;42.622;25.386;2023-05-19T09:37:22;97429.31;;;24.33;44.78
9439;BME280;5176;42.622;25.386;2023-05-19T09:39:50;97424.69;;;24.04;48.03
9439;BME280;5176;42.622;25.386;2023-05-19T09:42:25;97417.91;;;23.93;46.91
9439;BME280;5176;42.622;25.386;2023-05-19T09:44:59;97414.16;;;24.02;49.09
9439;BME280;5176;42.622;25.386;2023-05-19T09:47:27;97423.91;;;24.18;48.28
9439;BME280;5176;42.622;25.386;2023-05-19T09:49:58;97408.91;;;24.32;48.14
9439;BME280;5176;42.622;25.386;2023-05-19T09:52:26;97407.88;;;24.41;45.15
9439;BME280;5176;42.622;25.386;2023-05-19T09:54:53;97412.34;;;24.49;47.19
9439;BME280;5176;42.622;25.386;2023-05-19T09:57:26;97410.31;;;24.65;47.98
9439;BME280;5176;42.622;25.386;2023-05-19T09:59:54;97420.69;;;24.68;48.12
9439;BME280;5176;42.622;25.386;2023-05-19T10:02:23;97404.72;;;24.37;47.26
9439;BME280;5176;42.622;25.386;2023-05-19T10:04:52;97408.97;;;24.46;48.01
9439;BME280;5176;42.622;25.386;2023-05-19T10:07:22;97404.06;;;24.35;45.63
9439;BME280;5176;42.622;25.386;2023-05-19T10:09:50;97403.28;;;24.04;46.51
9439;BME280;5176;42.622;25.386;2023-05-19T10:12:19;97401.94;;;24.00;49.37
9439;BME280;5176;42.622;25.386;2023-05-19T10:14:48;97407.44;;;24.06;48.97
9439;BME280;5176;42.622;25.386;2023-05-19T10:17:18;97412.53;;;23.93;49.34
9439;BME280;5176;42.622;25.386;2023-05-19T10:19:47;97403.28;;;23.81;49.03
9439;BME280;5176;42.622;25.386;2023-05-19T10:22:17;97406.94;;;23.80;49.36
9439;BME280;5176;42.622;25.386;2023-05-19T10:24:44;97408.25;;;24.07;47.50
9439;BME280;5176;42.622;25.386;2023-05-19T10:27:13;97403.19;;;23.66;47.31
9439;BME280;5176;42.622;25.386;2023-05-19T10:29:44;97398.06;;;23.48;47.70
9439;BME280;5176;42.622;25.386;2023-05-19T10:32:19;97398.06;;;23.79;49.56
9439;BME280;5176;42.622;25.386;2023-05-19T10:35:08;97389.41;;;23.77;49.66
9439;BME280;5176;42.622;25.386;2023-05-19T10:37:44;97387.25;;;23.73;49.17
9439;BME280;5176;42.622;25.386;2023-05-19T10:40:19;97400.34;;;23.68;50.65
9439;BME280;5176;42.622;25.386;2023-05-19T10:42:56;97402.72;;;23.54;49.93
9439;BME280;5176;42.622;25.386;2023-05-19T10:45:29;97394.34;;;23.57;49.42
9439;BME280;5176;42.622;25.386;2023-05-19T10:48:02;97388.44;;;23.93;50.08
9439;BME280;5176;42.622;25.386;2023-05-19T10:50:34;97389.53;;;24.30;48.11
9439;BME280;5176;42.622;25.386;2023-05-19T10:53:02;97387.50;;;24.55;44.22
9439;BME280;5176;42.622;25.386;2023-05-19T10:55:45;97384.25;;;24.74;47.17
9439;BME280;5176;42.622;25.386;2023-05-19T10:58:13;97380.66;;;24.67;46.21
9439;BME280;5176;42.622;25.386;2023-05-19T11:00:41;97383.88;;;23.48;43.61
9439;BME280;5176;42.622;25.386;2023-05-19T11:03:16;97381.94;;;23.25;46.06
9439;BME280;5176;42.622;25.386;2023-05-19T11:05:48;97383.63;;;22.63;47.61
9439;BME280;5176;42.622;25.386;2023-05-19T11:08:31;97382.78;;;22.70;50.30
9439;BME280;5176;42.622;25.386;2023-05-19T11:11:11;97373.91;;;22.78;50.41
9439;BME280;5176;42.622;25.386;2023-05-19T11:13:42;97372.56;;;22.90;49.99
9439;BME280;5176;42.622;25.386;2023-05-19T11:16:13;97374.56;;;23.35;48.40
9439;BME280;5176;42.622;25.386;2023-05-19T11:18:42;97370.72;;;23.69;44.02
9439;BME280;5176;42.622;25.386;2023-05-19T11:21:13;97372.63;;;23.83;46.42
9439;BME280;5176;42.622;25.386;2023-05-19T11:23:40;97369.19;;;23.98;49.94
9439;BME280;5176;42.622;25.386;2023-05-19T11:26:08;97372.81;;;24.05;44.70
9439;BME280;5176;42.622;25.386;2023-05-19T11:28:36;97366.13;;;24.24;40.75
9439;BME280;5176;42.622;25.386;2023-05-19T11:31:04;97351.13;;;24.37;40.34
9439;BME280;5176;42.622;25.386;2023-05-19T11:33:35;97337.03;;;24.58;40.63
9439;BME280;5176;42.622;25.386;2023-05-19T11:36:04;97323.19;;;24.55;42.54
9439;BME280;5176;42.622;25.386;2023-05-19T11:38:33;97335.72;;;24.54;43.41
9439;BME280;5176;42.622;25.386;2023-05-19T11:41:02;97336.38;;;24.56;43.33
9439;BME280;5176;42.622;25.386;2023-05-19T11:43:29;97326.88;;;24.68;43.58
9439;BME280;5176;42.622;25.386;2023-05-19T11:45:57;97328.50;;;24.99;43.04
9439;BME280;5176;42.622;25.386;2023-05-19T11:48:25;97338.44;;;25.28;44.06
9439;BME280;5176;42.622;25.386;2023-05-19T11:50:52;97311.09;;;25.39;43.60
9439;BME280;5176;42.622;25.386;2023-05-19T11:53:23;97323.88;;;25.73;44.19
9439;BME280;5176;42.622;25.386;2023-05-19T11:55:50;97327.66;;;25.64;40.27
9439;BME280;5176;42.622;25.386;2023-05-19T11:58:24;97331.50;;;25.55;40.32
9439;BME280;5176;42.622;25.386;2023-05-19T12:00:53;97328.69;;;25.63;39.94
9439;BME280;5176;42.622;25.386;2023-05-19T12:03:20;97336.09;;;25.76;39.75
9439;BME280;5176;42.622;25.386;2023-05-19T12:05:53;97333.91;;;25.86;41.21
9439;BME280;5176;42.622;25.386;2023-05-19T12:08:20;97337.06;;;25.90;39.82
9439;BME280;5176;42.622;25.386;2023-05-19T12:10:51;97324.38;;;26.05;42.36
9439;BME280;5176;42.622;25.386;2023-05-19T12:13:19;97323.03;;;26.16;40.57
9439;BME280;5176;42.622;25.386;2023-05-19T12:15:49;97317.31;;;26.25;41.07
9439;BME280;5176;42.622;25.386;2023-05-19T12:18:17;97318.81;;;26.34;41.15
9439;BME280;5176;42.622;25.386;2023-05-19T12:20:45;97317.34;;;26.32;39.44
9439;BME280;5176;42.622;25.386;2023-05-19T12:23:12;97318.13;;;26.26;36.00
9439;BME280;5176;42.622;25.386;2023-05-19T12:25:41;97325.63;;;25.66;37.53
9439;BME280;5176;42.622;25.386;2023-05-19T12:28:10;97318.25;;;25.17;36.66
9439;BME280;5176;42.622;25.386;2023-05-19T12:30:37;97325.00;;;25.28;36.91
9439;BME280;5176;42.622;25.386;2023-05-19T12:33:07;97323.06;;;25.07;37.78
9439;BME280;5176;42.622;25.386;2023-05-19T12:35:36;97313.50;;;25.34;38.43
9439;BME280;5176;42.622;25.386;2023-05-19T12:38:04;97304.63;;;25.34;37.82
9439;BME280;5176;42.622;25.386;2023-05-19T12:40:32;97288.88;;;25.67;39.40
9439;BME280;5176;42.622;25.386;2023-05-19T12:43:00;97312.94;;;25.96;36.48
9439;BME280;5176;42.622;25.386;2023-05-19T12:45:33;97311.72;;;25.99;36.33
9439;BME280;5176;42.622;25.386;2023-05-19T12:48:02;97317.94;;;25.78;35.25
9439;BME280;5176;42.622;25.386;2023-05-19T12:50:30;97287.19;;;25.44;34.77
9439;BME280;5176;42.622;25.386;2023-05-19T12:52:58;97309.66;;;25.58;35.46
9439;BME280;5176;42.622;25.386;2023-05-19T12:55:26;97307.97;;;25.36;34.49
9439;BME280;5176;42.622;25.386;2023-05-19T12:57:53;97315.53;;;25.32;34.89
9439;BME280;5176;42.622;25.386;2023-05-19T13:00:23;97312.88;;;25.53;36.41
9439;BME280;5176;42.622;25.386;2023-05-19T13:02:59;97305.13;;;25.80;35.01
9439;BME280;5176;42.622;25.386;2023-05-19T13:05:27;97305.78;;;26.03;35.54
9439;BME280;5176;42.622;25.386;2023-05-19T13:07:56;97294.41;;;26.01;36.85
9439;BME280;5176;42.622;25.386;2023-05-19T13:10:24;97323.16;;;26.07;36.00
9439;BME280;5176;42.622;25.386;2023-05-19T13:12:53;97313.03;;;25.82;35.67
9439;BME280;5176;42.622;25.386;2023-05-19T13:15:22;97315.25;;;25.42;36.28
9439;BME280;5176;42.622;25.386;2023-05-19T13:17:51;97312.63;;;25.12;38.15
9439;BME280;5176;42.622;25.386;2023-05-19T13:20:20;97319.56;;;25.07;40.15
9439;BME280;5176;42.622;25.386;2023-05-19T13:22:48;97320.94;;;25.03;40.87
9439;BME280;5176;42.622;25.386;2023-05-19T13:25:16;97326.03;;;24.97;40.66